Time;durP1;ratioP1;P1;durP2;ratioP2;P2;SDS_P1;SDS_P2;PMS_P1;PMS_P2;Temp;Humidity;BMP_temperature;BMP_pressure;BME280_temperature;BME280_humidity;BME280_pressure;Samples;Min_cycle;Max_cycle;Signal;HPM_P1;HPM_P2
2022/03/27 00:01:47;;;;;;;12.77;10.88;;;;;;;;;;5038389;28;20037;-70
2022/03/27 00:04:12;;;;;;;10.65;9.57;;;;;;;;;;5047251;28;20027;-71
2022/03/27 00:06:38;;;;;;;11.05;9.95;;;;;;;;;;5040867;28;20135;-70
2022/03/27 00:09:03;;;;;;;10.10;9.20;;;;;;;;;;5046908;28;20575;-69
2022/03/27 00:11:29;;;;;;;10.25;9.25;;;;;;;;;;5043870;28;20031;-70
2022/03/27 00:13:55;;;;;;;10.02;9.13;;;;;;;;;;5045733;28;20036;-70
2022/03/27 00:16:21;;;;;;;9.68;8.77;;;;;;;;;;5042524;28;20132;-70
2022/03/27 00:18:47;;;;;;;8.82;8.02;;;;;;;;;;5028609;28;20378;-70
2022/03/27 00:21:13;;;;;;;8.75;7.97;;;;;;;;;;5039672;28;20135;-70
2022/03/27 00:23:38;;;;;;;11.07;9.98;;;;;;;;;;5045199;28;20494;-70
2022/03/27 00:26:04;;;;;;;10.85;9.80;;;;;;;;;;5045538;28;20041;-70
2022/03/27 00:28:32;;;;;;;11.00;9.90;;;;;;;;;;5045538;28;20447;-70
2022/03/27 00:31:04;;;;;;;11.38;10.18;;;;;;;;;;5041085;28;20283;-69
2022/03/27 00:33:30;;;;;;;11.38;10.20;;;;;;;;;;5046550;28;20033;-69
2022/03/27 00:35:55;;;;;;;11.32;10.23;;;;;;;;;;5038994;28;20029;-69
2022/03/27 00:38:21;;;;;;;12.32;11.02;;;;;;;;;;5046201;28;20395;-69
2022/03/27 00:40:46;;;;;;;14.00;11.55;;;;;;;;;;5044079;28;20475;-69
2022/03/27 00:43:12;;;;;;;13.80;12.50;;;;;;;;;;5045126;28;20025;-71
2022/03/27 00:45:38;;;;;;;15.00;12.65;;;;;;;;;;5044484;28;20023;-69
2022/03/27 00:48:03;;;;;;;14.95;13.45;;;;;;;;;;5043661;28;20472;-69
2022/03/27 00:50:30;;;;;;;14.45;12.95;;;;;;;;;;5044178;28;20025;-69
2022/03/27 00:52:56;;;;;;;15.95;13.55;;;;;;;;;;5041091;28;20079;-70
2022/03/27 00:55:22;;;;;;;18.55;14.57;;;;;;;;;;5046260;28;20025;-69
2022/03/27 00:57:48;;;;;;;15.70;13.10;;;;;;;;;;5026578;28;20037;-71
2022/03/27 01:00:18;;;;;;;15.07;12.45;;;;;;;;;;5044131;28;20025;-70
2022/03/27 01:02:43;;;;;;;14.35;12.60;;;;;;;;;;5042388;28;20025;-70
2022/03/27 01:05:11;;;;;;;13.95;12.45;;;;;;;;;;5044964;28;20028;-70
2022/03/27 01:07:39;;;;;;;14.05;12.50;;;;;;;;;;5040817;28;20384;-70
2022/03/27 01:10:04;;;;;;;14.13;11.52;;;;;;;;;;5026584;28;20076;-70
2022/03/27 01:12:38;;;;;;;12.40;11.00;;;;;;;;;;5044059;28;20052;-70
2022/03/27 01:15:05;;;;;;;15.77;12.85;;;;;;;;;;5043972;28;20514;-70
2022/03/27 01:17:30;;;;;;;14.88;12.15;;;;;;;;;;5041428;28;20060;-70
2022/03/27 01:19:56;;;;;;;15.07;11.65;;;;;;;;;;5048198;28;20052;-70
2022/03/27 01:22:21;;;;;;;15.27;11.80;;;;;;;;;;5040342;28;20119;-71
2022/03/27 01:24:48;;;;;;;13.98;11.77;;;;;;;;;;5044024;28;20021;-70
2022/03/27 01:27:13;;;;;;;14.73;12.18;;;;;;;;;;5043946;28;20021;-70
2022/03/27 01:29:39;;;;;;;16.75;13.63;;;;;;;;;;5046383;28;20021;-69
2022/03/27 01:32:05;;;;;;;14.93;12.98;;;;;;;;;;5040948;28;20032;-70
2022/03/27 01:34:31;;;;;;;15.85;12.63;;;;;;;;;;5046139;28;20013;-69
2022/03/27 01:37:00;;;;;;;14.95;12.95;;;;;;;;;;5038394;28;20025;-70
2022/03/27 01:39:25;;;;;;;16.52;13.98;;;;;;;;;;5044017;28;20027;-71
2022/03/27 01:41:50;;;;;;;16.08;13.05;;;;;;;;;;5025749;28;20036;-69
2022/03/27 01:44:17;;;;;;;17.58;13.38;;;;;;;;;;5027012;28;20083;-70
2022/03/27 01:46:44;;;;;;;18.58;14.65;;;;;;;;;;5040851;28;20041;-69
2022/03/27 01:49:11;;;;;;;16.98;13.18;;;;;;;;;;5051627;28;20115;-69
2022/03/27 01:51:36;;;;;;;15.55;13.70;;;;;;;;;;5060646;28;20100;-69
2022/03/27 01:54:02;;;;;;;14.00;12.48;;;;;;;;;;5063819;28;20340;-69
2022/03/27 01:56:27;;;;;;;16.25;12.00;;;;;;;;;;5061572;28;20016;-70
2022/03/27 01:58:53;;;;;;;18.05;13.73;;;;;;;;;;5062968;28;20471;-70
2022/03/27 02:01:19;;;;;;;15.15;11.82;;;;;;;;;;5063723;28;20031;-70
2022/03/27 02:03:45;;;;;;;14.60;12.23;;;;;;;;;;5045510;28;20115;-70
2022/03/27 02:06:12;;;;;;;14.30;12.07;;;;;;;;;;5041882;28;20148;-70
2022/03/27 02:08:37;;;;;;;14.32;11.45;;;;;;;;;;5064529;28;20028;-69
2022/03/27 02:11:02;;;;;;;14.63;12.18;;;;;;;;;;5062204;28;20109;-70
2022/03/27 02:13:28;;;;;;;15.57;12.52;;;;;;;;;;5063262;28;20020;-70
2022/03/27 02:15:57;;;;;;;13.80;11.65;;;;;;;;;;5058290;28;20553;-70
2022/03/27 02:18:23;;;;;;;14.38;12.25;;;;;;;;;;5067590;28;20051;-70
2022/03/27 02:20:49;;;;;;;13.73;11.40;;;;;;;;;;5065013;28;20543;-70
2022/03/27 02:23:14;;;;;;;14.65;11.95;;;;;;;;;;5047215;28;20056;-70
2022/03/27 02:25:40;;;;;;;17.65;12.07;;;;;;;;;;5043237;28;20061;-70
2022/03/27 02:28:05;;;;;;;14.48;11.98;;;;;;;;;;5042833;28;20029;-70
2022/03/27 02:30:31;;;;;;;15.70;12.40;;;;;;;;;;5042199;28;20070;-71
2022/03/27 02:32:57;;;;;;;16.08;13.73;;;;;;;;;;5022494;28;20029;-70
2022/03/27 02:35:23;;;;;;;15.00;12.50;;;;;;;;;;5041062;28;20083;-70
2022/03/27 02:37:49;;;;;;;15.02;12.77;;;;;;;;;;5040442;28;20462;-70
2022/03/27 02:40:14;;;;;;;16.42;13.38;;;;;;;;;;5043357;28;20029;-69
2022/03/27 02:42:39;;;;;;;16.15;12.85;;;;;;;;;;5044749;28;20515;-69
2022/03/27 02:45:08;;;;;;;14.15;12.13;;;;;;;;;;5042614;28;20423;-70
2022/03/27 02:47:33;;;;;;;15.30;12.52;;;;;;;;;;5039552;28;20450;-71
2022/03/27 02:49:58;;;;;;;13.77;11.40;;;;;;;;;;5043343;28;20480;-69
2022/03/27 02:52:24;;;;;;;15.90;12.90;;;;;;;;;;5053276;28;20021;-70
2022/03/27 02:54:50;;;;;;;16.15;12.02;;;;;;;;;;5063285;28;20040;-70
2022/03/27 02:57:15;;;;;;;15.30;12.80;;;;;;;;;;5044031;28;20028;-69
2022/03/27 02:59:40;;;;;;;16.17;13.35;;;;;;;;;;5063186;28;20117;-69
2022/03/27 03:02:06;;;;;;;18.65;14.48;;;;;;;;;;5059180;28;20034;-70
2022/03/27 03:04:34;;;;;;;17.95;14.50;;;;;;;;;;5063995;28;20021;-69
2022/03/27 03:07:00;;;;;;;16.92;13.45;;;;;;;;;;5058464;28;20020;-69
2022/03/27 03:09:25;;;;;;;18.02;14.10;;;;;;;;;;5046643;28;20138;-70
2022/03/27 03:11:51;;;;;;;15.50;12.27;;;;;;;;;;5062051;28;20135;-69
2022/03/27 03:14:17;;;;;;;16.40;13.40;;;;;;;;;;5062781;28;20057;-69
2022/03/27 03:16:42;;;;;;;15.73;13.00;;;;;;;;;;5060414;28;20047;-69
2022/03/27 03:19:07;;;;;;;17.38;13.77;;;;;;;;;;5063528;28;20036;-70
2022/03/27 03:21:33;;;;;;;15.10;12.88;;;;;;;;;;5050432;28;20017;-70
2022/03/27 03:23:59;;;;;;;17.25;12.90;;;;;;;;;;5063062;28;20025;-69
2022/03/27 03:26:24;;;;;;;15.48;12.50;;;;;;;;;;5064105;28;20017;-69
2022/03/27 03:28:51;;;;;;;17.02;13.98;;;;;;;;;;5063889;28;20025;-70
2022/03/27 03:31:17;;;;;;;16.60;12.80;;;;;;;;;;5040880;28;20224;-70
2022/03/27 03:33:42;;;;;;;18.42;13.02;;;;;;;;;;5061251;28;20363;-69
2022/03/27 03:36:10;;;;;;;17.20;13.57;;;;;;;;;;5055950;28;20548;-70
2022/03/27 03:38:36;;;;;;;19.73;14.80;;;;;;;;;;5066293;28;20499;-70
2022/03/27 03:41:01;;;;;;;19.88;14.95;;;;;;;;;;5063906;28;20130;-70
2022/03/27 03:43:26;;;;;;;18.80;14.50;;;;;;;;;;5067507;28;20494;-70
2022/03/27 03:45:52;;;;;;;18.02;15.23;;;;;;;;;;5063532;28;20221;-70
2022/03/27 03:48:17;;;;;;;19.77;16.17;;;;;;;;;;5048606;28;20319;-70
2022/03/27 03:50:44;;;;;;;17.90;15.00;;;;;;;;;;5065377;28;20024;-70
2022/03/27 03:53:09;;;;;;;18.73;15.35;;;;;;;;;;5063463;28;20467;-70
2022/03/27 03:55:35;;;;;;;15.77;13.52;;;;;;;;;;5062254;28;20040;-71
2022/03/27 03:58:01;;;;;;;16.40;12.82;;;;;;;;;;5044849;28;20029;-70
2022/03/27 04:00:26;;;;;;;12.82;11.35;;;;;;;;;;5046445;28;20457;-70
2022/03/27 04:02:52;;;;;;;14.32;12.07;;;;;;;;;;5044356;28;20119;-70
2022/03/27 04:05:18;;;;;;;13.45;11.75;;;;;;;;;;5044508;28;20399;-70
2022/03/27 04:07:43;;;;;;;14.70;12.63;;;;;;;;;;5041081;28;20089;-70
2022/03/27 04:10:09;;;;;;;14.65;11.95;;;;;;;;;;5062622;28;20184;-69
2022/03/27 04:12:34;;;;;;;13.60;11.48;;;;;;;;;;5054349;28;20044;-71
2022/03/27 04:15:00;;;;;;;13.13;11.50;;;;;;;;;;5045816;28;20064;-70
2022/03/27 04:17:25;;;;;;;14.55;11.90;;;;;;;;;;5042158;28;20146;-70
2022/03/27 04:19:50;;;;;;;14.85;12.55;;;;;;;;;;5046499;28;20333;-70
2022/03/27 04:22:16;;;;;;;13.95;12.45;;;;;;;;;;5018613;28;20371;-71
2022/03/27 04:24:42;;;;;;;15.63;12.70;;;;;;;;;;5038301;28;20162;-70
2022/03/27 04:27:07;;;;;;;14.88;12.80;;;;;;;;;;5057869;28;20086;-70
2022/03/27 04:29:32;;;;;;;16.25;13.38;;;;;;;;;;5067234;28;20024;-71
2022/03/27 04:31:58;;;;;;;16.55;13.57;;;;;;;;;;5064468;28;20044;-70
2022/03/27 04:34:23;;;;;;;16.58;14.00;;;;;;;;;;5065431;28;20074;-70
2022/03/27 04:36:49;;;;;;;14.63;13.10;;;;;;;;;;5045105;28;20074;-69
2022/03/27 04:39:14;;;;;;;16.77;14.20;;;;;;;;;;5046071;28;20032;-70
2022/03/27 04:41:39;;;;;;;16.15;13.75;;;;;;;;;;5048049;28;20020;-70
2022/03/27 04:44:07;;;;;;;17.35;14.25;;;;;;;;;;5062762;28;20518;-70
2022/03/27 04:46:32;;;;;;;17.92;14.50;;;;;;;;;;5063803;28;20016;-71
2022/03/27 04:48:57;;;;;;;18.38;14.73;;;;;;;;;;5047314;28;20037;-70
2022/03/27 04:51:23;;;;;;;17.40;14.27;;;;;;;;;;5060225;28;20479;-70
2022/03/27 04:53:49;;;;;;;19.52;15.00;;;;;;;;;;5044919;28;20033;-71
2022/03/27 04:56:14;;;;;;;16.48;13.85;;;;;;;;;;5043863;28;20028;-70
2022/03/27 04:58:40;;;;;;;17.92;14.52;;;;;;;;;;5045247;28;20273;-70
2022/03/27 05:01:05;;;;;;;17.48;14.15;;;;;;;;;;5042554;28;20293;-69
2022/03/27 05:03:30;;;;;;;16.58;12.88;;;;;;;;;;5046624;28;20068;-70
2022/03/27 05:05:56;;;;;;;14.73;11.68;;;;;;;;;;5044032;28;20029;-69
2022/03/27 05:08:21;;;;;;;12.95;10.40;;;;;;;;;;5043595;28;20324;-70
2022/03/27 05:10:46;;;;;;;12.45;10.93;;;;;;;;;;5046189;28;20523;-71
2022/03/27 05:13:14;;;;;;;11.85;9.77;;;;;;;;;;5044753;28;20483;-70
2022/03/27 05:15:39;;;;;;;12.32;10.00;;;;;;;;;;5045750;28;20047;-71
2022/03/27 05:18:05;;;;;;;12.18;10.27;;;;;;;;;;5041169;28;20040;-71
2022/03/27 05:20:30;;;;;;;11.20;9.40;;;;;;;;;;5024597;28;20401;-71
2022/03/27 05:22:56;;;;;;;11.30;9.27;;;;;;;;;;5053213;28;20072;-71
2022/03/27 05:25:21;;;;;;;11.80;9.60;;;;;;;;;;5062518;28;20559;-70
2022/03/27 05:27:53;;;;;;;11.40;9.10;;;;;;;;;;5065017;28;20483;-70
2022/03/27 05:30:20;;;;;;;11.18;8.70;;;;;;;;;;5063170;28;20087;-70
2022/03/27 05:32:46;;;;;;;11.68;10.13;;;;;;;;;;5061549;28;20024;-70
2022/03/27 05:35:11;;;;;;;10.77;9.32;;;;;;;;;;5063865;28;20023;-70
2022/03/27 05:37:37;;;;;;;9.85;8.80;;;;;;;;;;5060360;28;20363;-70
2022/03/27 05:40:04;;;;;;;10.43;8.50;;;;;;;;;;5064296;28;20028;-70
2022/03/27 05:42:30;;;;;;;10.40;8.82;;;;;;;;;;5044125;28;20025;-70
2022/03/27 05:44:55;;;;;;;13.23;9.45;;;;;;;;;;5065445;28;20043;-70
2022/03/27 05:47:20;;;;;;;11.38;8.65;;;;;;;;;;5060201;28;20017;-70
2022/03/27 05:49:47;;;;;;;10.90;8.68;;;;;;;;;;5063343;28;20020;-70
2022/03/27 05:52:14;;;;;;;10.18;8.43;;;;;;;;;;5054427;28;20017;-69
2022/03/27 05:54:40;;;;;;;10.82;8.90;;;;;;;;;;5045061;28;20013;-70
2022/03/27 05:57:05;;;;;;;11.82;9.15;;;;;;;;;;5043953;28;20031;-70
2022/03/27 05:59:31;;;;;;;11.30;9.75;;;;;;;;;;5041994;28;20028;-70
2022/03/27 06:01:56;;;;;;;11.95;9.57;;;;;;;;;;5040837;28;20396;-69
2022/03/27 06:04:22;;;;;;;11.82;9.40;;;;;;;;;;5042737;28;20510;-70
2022/03/27 06:06:47;;;;;;;11.98;9.63;;;;;;;;;;5039745;28;20391;-69
2022/03/27 06:09:12;;;;;;;11.20;9.55;;;;;;;;;;5056827;28;20040;-69
2022/03/27 06:11:38;;;;;;;12.65;9.57;;;;;;;;;;5064045;28;20047;-70
2022/03/27 06:14:03;;;;;;;12.30;9.82;;;;;;;;;;5048937;28;20472;-71
2022/03/27 06:16:29;;;;;;;11.57;9.60;;;;;;;;;;5040641;28;20732;-70
2022/03/27 06:18:54;;;;;;;13.55;9.40;;;;;;;;;;5043406;28;20062;-71
2022/03/27 06:21:19;;;;;;;11.02;8.90;;;;;;;;;;5039634;28;20033;-71
2022/03/27 06:23:45;;;;;;;12.38;9.48;;;;;;;;;;5042068;28;20017;-69
2022/03/27 06:26:11;;;;;;;10.63;9.00;;;;;;;;;;5042585;28;20306;-70
2022/03/27 06:28:36;;;;;;;10.85;9.00;;;;;;;;;;5043282;28;20116;-70
2022/03/27 06:31:01;;;;;;;13.20;9.65;;;;;;;;;;5041088;28;20099;-70
2022/03/27 06:33:26;;;;;;;11.65;8.57;;;;;;;;;;5043904;28;20025;-70
2022/03/27 06:35:52;;;;;;;11.60;9.43;;;;;;;;;;5038255;28;20105;-71
2022/03/27 06:38:17;;;;;;;9.85;8.38;;;;;;;;;;5061702;28;20394;-70
2022/03/27 06:40:43;;;;;;;10.80;9.45;;;;;;;;;;5063268;28;20518;-71
2022/03/27 06:43:08;;;;;;;9.77;8.75;;;;;;;;;;5061721;28;20020;-70
2022/03/27 06:45:34;;;;;;;10.65;8.55;;;;;;;;;;5062992;28;20036;-70
2022/03/27 06:47:59;;;;;;;12.38;9.38;;;;;;;;;;5062792;28;20092;-70
2022/03/27 06:50:25;;;;;;;9.65;8.60;;;;;;;;;;5065884;28;20074;-70
2022/03/27 06:52:51;;;;;;;12.15;8.95;;;;;;;;;;5060567;28;20482;-70
2022/03/27 06:55:18;;;;;;;11.60;8.80;;;;;;;;;;5060224;28;20028;-72
2022/03/27 06:57:43;;;;;;;9.98;8.45;;;;;;;;;;5060851;28;20031;-70
2022/03/27 07:03:02;;;;;;;10.18;7.93;;;;;;;;;;5060439;28;20048;-71
2022/03/27 07:05:32;;;;;;;9.88;8.10;;;;;;;;;;5061649;28;20281;-71
2022/03/27 07:07:57;;;;;;;9.43;7.80;;;;;;;;;;5065589;28;20032;-71
2022/03/27 07:10:23;;;;;;;8.30;7.50;;;;;;;;;;5061962;28;20037;-70
2022/03/27 07:12:49;;;;;;;10.75;7.47;;;;;;;;;;5063051;28;20115;-70
2022/03/27 07:15:14;;;;;;;9.15;7.20;;;;;;;;;;5062370;28;20416;-72
2022/03/27 07:17:47;;;;;;;7.63;6.88;;;;;;;;;;5059959;28;20435;-71
2022/03/27 07:20:17;;;;;;;7.75;6.95;;;;;;;;;;5063331;28;20471;-70
2022/03/27 07:22:43;;;;;;;9.02;7.32;;;;;;;;;;5057410;28;20034;-71
2022/03/27 07:25:09;;;;;;;9.00;6.90;;;;;;;;;;5062095;28;20398;-72
2022/03/27 07:27:34;;;;;;;7.95;6.53;;;;;;;;;;5060737;28;20028;-70
2022/03/27 07:30:00;;;;;;;7.63;6.72;;;;;;;;;;5064143;28;20017;-71
2022/03/27 07:32:25;;;;;;;8.43;7.10;;;;;;;;;;5060358;28;20456;-70
2022/03/27 07:34:50;;;;;;;8.45;7.55;;;;;;;;;;5063764;28;20032;-70
2022/03/27 07:37:16;;;;;;;7.75;7.03;;;;;;;;;;5060807;28;20479;-69
2022/03/27 07:39:47;;;;;;;9.50;7.55;;;;;;;;;;5061095;28;20021;-70
2022/03/27 07:42:14;;;;;;;9.50;7.32;;;;;;;;;;5060819;28;20020;-69
2022/03/27 07:44:40;;;;;;;8.88;7.22;;;;;;;;;;5062549;28;20547;-69
2022/03/27 07:47:05;;;;;;;8.40;7.55;;;;;;;;;;5058570;28;20123;-71
2022/03/27 07:49:30;;;;;;;8.57;7.72;;;;;;;;;;5063183;28;20020;-70
2022/03/27 07:51:56;;;;;;;9.05;7.80;;;;;;;;;;5060172;28;20040;-70
2022/03/27 07:54:22;;;;;;;8.48;7.53;;;;;;;;;;5062465;28;20028;-70
2022/03/27 07:56:47;;;;;;;8.43;7.63;;;;;;;;;;5061089;28;20039;-69
2022/03/27 07:59:12;;;;;;;8.57;7.50;;;;;;;;;;5062495;28;20515;-70
2022/03/27 08:01:37;;;;;;;8.57;7.55;;;;;;;;;;5059623;28;20431;-71
2022/03/27 08:04:05;;;;;;;7.95;7.15;;;;;;;;;;5063416;28;20372;-70
2022/03/27 08:06:36;;;;;;;8.30;7.25;;;;;;;;;;5061093;28;20086;-70
2022/03/27 08:09:02;;;;;;;7.88;6.97;;;;;;;;;;5044754;28;20503;-72
2022/03/27 08:11:27;;;;;;;8.68;6.93;;;;;;;;;;5062429;28;20066;-72
2022/03/27 08:13:52;;;;;;;8.07;7.28;;;;;;;;;;5062906;28;20025;-70
2022/03/27 08:16:18;;;;;;;8.32;7.53;;;;;;;;;;5061105;28;20487;-71
2022/03/27 08:18:43;;;;;;;8.75;7.68;;;;;;;;;;5045109;28;20028;-70
2022/03/27 08:21:08;;;;;;;8.35;7.55;;;;;;;;;;5060257;28;20035;-71
2022/03/27 08:23:34;;;;;;;8.68;7.22;;;;;;;;;;5043127;28;20032;-69
2022/03/27 08:28:43;;;;;;;8.48;7.03;;;;;;;;;;5046486;28;20060;-71
2022/03/27 08:31:09;;;;;;;7.40;6.63;;;;;;;;;;5056744;28;20072;-71
2022/03/27 08:33:34;;;;;;;7.38;6.68;;;;;;;;;;5066236;28;20340;-70
2022/03/27 08:35:59;;;;;;;7.93;7.13;;;;;;;;;;5063124;28;20360;-70
2022/03/27 08:38:25;;;;;;;7.82;7.03;;;;;;;;;;5060890;28;20479;-70
2022/03/27 08:40:52;;;;;;;7.72;6.93;;;;;;;;;;5068171;28;20040;-70
2022/03/27 08:43:18;;;;;;;8.05;7.25;;;;;;;;;;5061454;28;20021;-70
2022/03/27 08:45:44;;;;;;;7.25;6.55;;;;;;;;;;5045042;28;20152;-71
2022/03/27 08:48:10;;;;;;;7.97;7.13;;;;;;;;;;5046115;28;20163;-70
2022/03/27 08:50:45;;;;;;;8.35;6.72;;;;;;;;;;5043467;28;20064;-69
2022/03/27 08:53:12;;;;;;;7.55;6.50;;;;;;;;;;5044251;28;20435;-71
2022/03/27 08:55:47;;;;;;;7.65;6.30;;;;;;;;;;5045710;28;20401;-71
2022/03/27 08:58:12;;;;;;;7.85;6.50;;;;;;;;;;5045924;28;20048;-70
2022/03/27 09:00:38;;;;;;;7.38;6.00;;;;;;;;;;5047007;28;20455;-70
2022/03/27 09:03:04;;;;;;;7.07;6.38;;;;;;;;;;5062030;28;20036;-70
2022/03/27 09:05:32;;;;;;;7.28;6.03;;;;;;;;;;5061061;28;20016;-69
2022/03/27 09:08:01;;;;;;;7.13;5.88;;;;;;;;;;5062964;28;20013;-70
2022/03/27 09:10:29;;;;;;;7.07;5.93;;;;;;;;;;5063691;28;20055;-71
2022/03/27 09:12:55;;;;;;;7.13;6.43;;;;;;;;;;5064288;28;20090;-70
2022/03/27 09:15:20;;;;;;;7.40;6.10;;;;;;;;;;5051447;28;20025;-69
2022/03/27 09:18:04;;;;;;;6.65;5.70;;;;;;;;;;5044745;28;20025;-71
2022/03/27 09:20:44;;;;;;;6.82;6.13;;;;;;;;;;5049455;28;20013;-69
2022/03/27 09:23:15;;;;;;;6.90;6.22;;;;;;;;;;5044079;28;20021;-70
2022/03/27 09:25:45;;;;;;;7.00;6.32;;;;;;;;;;5053841;28;20040;-71
2022/03/27 09:28:11;;;;;;;7.85;6.25;;;;;;;;;;5064642;28;20019;-71
2022/03/27 09:30:36;;;;;;;7.88;6.55;;;;;;;;;;5046249;28;20391;-70
2022/03/27 09:33:02;;;;;;;9.55;6.47;;;;;;;;;;5063689;28;20353;-70
2022/03/27 09:35:28;;;;;;;8.10;6.65;;;;;;;;;;5063674;28;20024;-70
2022/03/27 09:37:54;;;;;;;7.78;6.40;;;;;;;;;;5045764;28;20226;-70
2022/03/27 09:40:19;;;;;;;7.85;6.35;;;;;;;;;;5065346;28;20471;-71
2022/03/27 09:42:44;;;;;;;7.78;6.63;;;;;;;;;;5063838;28;20454;-70
2022/03/27 09:45:20;;;;;;;6.88;6.15;;;;;;;;;;5067796;28;20027;-70
2022/03/27 09:47:46;;;;;;;8.40;6.57;;;;;;;;;;5068744;28;20383;-70
2022/03/27 09:50:30;;;;;;;8.77;6.80;;;;;;;;;;5065953;28;20036;-71
2022/03/27 09:53:15;;;;;;;7.25;6.47;;;;;;;;;;5060909;28;20056;-70
2022/03/27 09:55:40;;;;;;;8.30;5.90;;;;;;;;;;5057645;28;20326;-70
2022/03/27 09:58:07;;;;;;;8.30;5.88;;;;;;;;;;5049330;28;20025;-70
2022/03/27 10:00:33;;;;;;;7.03;5.88;;;;;;;;;;5044119;28;20029;-71
2022/03/27 10:03:07;;;;;;;8.30;6.20;;;;;;;;;;5023797;28;20509;-70
2022/03/27 10:05:33;;;;;;;9.43;6.38;;;;;;;;;;5042671;28;20017;-71
2022/03/27 10:07:58;;;;;;;6.90;5.95;;;;;;;;;;5024961;28;20036;-70
2022/03/27 10:10:25;;;;;;;8.05;5.35;;;;;;;;;;5044130;28;20155;-71
2022/03/27 10:12:54;;;;;;;6.65;5.93;;;;;;;;;;5044463;28;20745;-69
2022/03/27 10:15:21;;;;;;;7.10;6.15;;;;;;;;;;5044378;28;20386;-69
2022/03/27 10:17:49;;;;;;;8.68;6.40;;;;;;;;;;5055010;28;20036;-69
2022/03/27 10:20:15;;;;;;;10.30;6.25;;;;;;;;;;5065975;28;20024;-70
2022/03/27 10:22:44;;;;;;;8.23;6.32;;;;;;;;;;5060873;28;20459;-68
2022/03/27 10:25:10;;;;;;;9.10;6.78;;;;;;;;;;5067719;28;20016;-68
2022/03/27 10:27:37;;;;;;;8.88;6.50;;;;;;;;;;5063867;28;20136;-68
2022/03/27 10:30:03;;;;;;;8.00;6.93;;;;;;;;;;5063198;28;20372;-68
2022/03/27 10:32:28;;;;;;;10.73;6.40;;;;;;;;;;5062205;28;20015;-69
2022/03/27 10:35:06;;;;;;;6.70;5.95;;;;;;;;;;5063130;28;20302;-69
2022/03/27 10:37:39;;;;;;;7.40;6.28;;;;;;;;;;5059113;28;20024;-70
2022/03/27 10:40:04;;;;;;;;;;;;;;;;;;5064822;28;20029;-69
2022/03/27 10:42:37;;;;;;;7.95;6.30;;;;;;;;;;5062913;28;20014;-71
2022/03/27 10:45:03;;;;;;;7.70;5.72;;;;;;;;;;5064950;28;20017;-70
2022/03/27 10:47:31;;;;;;;8.13;5.85;;;;;;;;;;5060905;28;20031;-72
2022/03/27 10:50:02;;;;;;;9.13;6.35;;;;;;;;;;5063455;28;20665;-71
2022/03/27 10:52:28;;;;;;;7.72;6.07;;;;;;;;;;5059440;28;20013;-70
2022/03/27 10:55:01;;;;;;;7.55;5.63;;;;;;;;;;5062470;28;20025;-69
2022/03/27 10:57:28;;;;;;;7.97;5.95;;;;;;;;;;5062435;28;20557;-70
2022/03/27 10:59:53;;;;;;;7.82;5.72;;;;;;;;;;5061388;28;20028;-70
2022/03/27 11:02:38;;;;;;;7.05;4.72;;;;;;;;;;5042948;28;20386;-70
2022/03/27 11:05:03;;;;;;;7.45;4.47;;;;;;;;;;5061560;28;20021;-70
2022/03/27 11:07:29;;;;;;;6.13;4.43;;;;;;;;;;5059598;28;20020;-69
2022/03/27 11:09:55;;;;;;;10.13;4.10;;;;;;;;;;5060941;28;20131;-70
2022/03/27 11:12:24;;;;;;;5.03;3.88;;;;;;;;;;5050505;28;20442;-70
2022/03/27 11:14:52;;;;;;;8.85;4.97;;;;;;;;;;5034287;28;20031;-71
2022/03/27 11:17:28;;;;;;;5.70;4.45;;;;;;;;;;5037303;28;20068;-70
2022/03/27 11:19:53;;;;;;;6.43;4.47;;;;;;;;;;5036977;28;20060;-70
2022/03/27 11:22:37;;;;;;;6.18;4.25;;;;;;;;;;5033905;28;20112;-69
2022/03/27 11:25:21;;;;;;;6.60;3.83;;;;;;;;;;5036884;28;20020;-69
2022/03/27 11:28:13;;;;;;;6.85;4.15;;;;;;;;;;5048198;28;20025;-69
2022/03/27 11:30:47;;;;;;;5.15;3.80;;;;;;;;;;5055986;28;20119;-69
2022/03/27 11:33:31;;;;;;;8.18;4.45;;;;;;;;;;5056012;28;20027;-70
2022/03/27 11:36:09;;;;;;;5.40;3.47;;;;;;;;;;5056057;28;20033;-70
2022/03/27 11:38:46;;;;;;;4.55;3.47;;;;;;;;;;5055691;28;20213;-71
2022/03/27 11:41:21;;;;;;;6.50;4.20;;;;;;;;;;5057491;28;20029;-70
2022/03/27 11:43:47;;;;;;;6.88;4.28;;;;;;;;;;5063415;28;20104;-69
2022/03/27 11:46:23;;;;;;;5.95;3.67;;;;;;;;;;5055330;28;20093;-71
2022/03/27 11:48:55;;;;;;;8.00;4.60;;;;;;;;;;5043090;28;20013;-74
2022/03/27 11:51:20;;;;;;;5.73;3.43;;;;;;;;;;5040488;28;20096;-72
2022/03/27 11:53:46;;;;;;;6.10;3.58;;;;;;;;;;5039727;28;20432;-70
2022/03/27 11:56:11;;;;;;;5.55;3.00;;;;;;;;;;5025829;28;20025;-70
2022/03/27 11:58:37;;;;;;;5.18;2.92;;;;;;;;;;5046201;28;20024;-70
2022/03/27 12:01:04;;;;;;;6.57;3.28;;;;;;;;;;5044473;28;20424;-71
2022/03/27 12:03:29;;;;;;;5.15;2.80;;;;;;;;;;5047683;28;20372;-71
2022/03/27 12:06:02;;;;;;;6.63;2.97;;;;;;;;;;5024775;28;20056;-71
2022/03/27 12:08:34;;;;;;;4.05;2.47;;;;;;;;;;5049991;28;20048;-72
2022/03/27 12:11:04;;;;;;;4.28;2.08;;;;;;;;;;5045425;28;20041;-70
2022/03/27 12:13:43;;;;;;;2.75;1.90;;;;;;;;;;5045150;28;20029;-71
2022/03/27 12:16:31;;;;;;;3.75;2.13;;;;;;;;;;5042400;28;20481;-71
2022/03/27 12:18:58;;;;;;;6.47;1.90;;;;;;;;;;5045007;28;20108;-71
2022/03/27 12:21:24;;;;;;;5.00;1.95;;;;;;;;;;5033675;28;20027;-72
2022/03/27 12:23:50;;;;;;;5.82;2.60;;;;;;;;;;5045281;28;20025;-70
2022/03/27 12:31:55;;;;;;;5.13;2.80;;;;;;;;;;5056974;28;20502;-72
2022/03/27 12:34:20;;;;;;;5.82;2.60;;;;;;;;;;5046169;28;20140;-71
2022/03/27 12:37:09;;;;;;;5.22;3.00;;;;;;;;;;5042199;28;20443;-71
2022/03/27 12:39:35;;;;;;;3.15;2.53;;;;;;;;;;5045658;28;20484;-72
2022/03/27 12:42:01;;;;;;;4.07;2.17;;;;;;;;;;5043415;28;20469;-72
2022/03/27 12:44:46;;;;;;;3.42;1.83;;;;;;;;;;5046340;28;20152;-72
2022/03/27 12:47:11;;;;;;;3.22;2.00;;;;;;;;;;5041509;28;20048;-73
2022/03/27 12:49:47;;;;;;;5.70;2.15;;;;;;;;;;5044308;28;20098;-73
2022/03/27 12:52:13;;;;;;;4.70;1.73;;;;;;;;;;5037222;28;20141;-71
2022/03/27 12:55:09;;;;;;;3.50;1.50;;;;;;;;;;5048046;28;20694;-70
2022/03/27 12:57:49;;;;;;;4.57;1.83;;;;;;;;;;5037510;28;20041;-71
2022/03/27 13:00:15;;;;;;;2.90;1.80;;;;;;;;;;5044007;28;20061;-69
2022/03/27 13:02:40;;;;;;;3.63;1.50;;;;;;;;;;5043547;28;20863;-70
2022/03/27 13:05:05;;;;;;;4.63;2.00;;;;;;;;;;5042860;28;20044;-70
2022/03/27 13:07:52;;;;;;;2.85;1.42;;;;;;;;;;5043429;28;20653;-70
2022/03/27 13:10:18;;;;;;;3.33;1.58;;;;;;;;;;5063510;28;20056;-71
2022/03/27 13:12:43;;;;;;;4.30;1.63;;;;;;;;;;5064687;28;20063;-69
2022/03/27 13:15:08;;;;;;;4.10;2.00;;;;;;;;;;5064345;28;20059;-70
2022/03/27 13:17:33;;;;;;;5.90;1.80;;;;;;;;;;5052960;28;20108;-71
2022/03/27 13:19:59;;;;;;;5.82;1.70;;;;;;;;;;5044954;28;21504;-69
2022/03/27 13:22:24;;;;;;;6.35;1.50;;;;;;;;;;5021567;28;20033;-70
2022/03/27 13:24:50;;;;;;;2.60;1.55;;;;;;;;;;5046741;28;20091;-70
2022/03/27 13:27:15;;;;;;;3.22;1.05;;;;;;;;;;5022834;28;20310;-70
2022/03/27 13:29:41;;;;;;;2.92;1.10;;;;;;;;;;5045537;28;20458;-70
2022/03/27 13:32:09;;;;;;;4.20;1.40;;;;;;;;;;5058318;28;21043;-68
2022/03/27 13:34:35;;;;;;;2.58;1.10;;;;;;;;;;5066262;28;20158;-70
2022/03/27 13:37:00;;;;;;;5.57;1.17;;;;;;;;;;5055160;28;20456;-70
2022/03/27 13:39:26;;;;;;;2.90;1.63;;;;;;;;;;5047527;28;20043;-72
2022/03/27 13:44:38;;;;;;;11.57;2.55;;;;;;;;;;5045226;28;20028;-69
2022/03/27 13:47:03;;;;;;;12.63;3.35;;;;;;;;;;5040724;28;20188;-69
2022/03/27 13:49:29;;;;;;;12.93;3.22;;;;;;;;;;5044149;28;20100;-70
2022/03/27 13:51:55;;;;;;;3.88;1.48;;;;;;;;;;5040587;28;20025;-69
2022/03/27 13:54:21;;;;;;;3.78;1.20;;;;;;;;;;5043363;28;20036;-70
2022/03/27 13:56:46;;;;;;;11.90;2.55;;;;;;;;;;5044862;28;20021;-68
2022/03/27 13:59:12;;;;;;;13.27;3.40;;;;;;;;;;5043984;28;20071;-68
2022/03/27 14:01:40;;;;;;;11.73;3.40;;;;;;;;;;5041140;28;20025;-68
2022/03/27 14:04:14;;;;;;;16.02;3.85;;;;;;;;;;5043131;28;20021;-70
2022/03/27 14:06:42;;;;;;;14.40;3.80;;;;;;;;;;5040780;28;20050;-68
2022/03/27 14:09:07;;;;;;;14.90;3.80;;;;;;;;;;5041456;28;20108;-71
2022/03/27 14:11:33;;;;;;;11.55;3.28;;;;;;;;;;5043241;28;20112;-69
2022/03/27 14:13:58;;;;;;;14.15;3.33;;;;;;;;;;5042103;28;20460;-68
2022/03/27 14:16:24;;;;;;;14.48;3.25;;;;;;;;;;5024819;28;20433;-68
2022/03/27 14:18:50;;;;;;;11.45;3.42;;;;;;;;;;5045461;28;20029;-68
2022/03/27 14:21:16;;;;;;;13.02;3.75;;;;;;;;;;5037888;28;20029;-69
2022/03/27 14:23:41;;;;;;;13.02;3.30;;;;;;;;;;5042126;28;20040;-69
2022/03/27 14:26:06;;;;;;;12.40;3.20;;;;;;;;;;5042791;28;20116;-70
2022/03/27 14:28:32;;;;;;;11.85;3.40;;;;;;;;;;5044016;28;20409;-67
2022/03/27 14:30:58;;;;;;;13.85;3.90;;;;;;;;;;5040696;28;20483;-67
2022/03/27 14:33:24;;;;;;;13.82;3.85;;;;;;;;;;5025640;28;20112;-67
2022/03/27 14:35:52;;;;;;;10.90;3.25;;;;;;;;;;5049651;28;20169;-69
2022/03/27 14:38:18;;;;;;;13.63;3.83;;;;;;;;;;5060932;28;20434;-68
2022/03/27 14:40:43;;;;;;;12.98;3.90;;;;;;;;;;5064564;28;20475;-69
2022/03/27 14:43:08;;;;;;;13.77;3.83;;;;;;;;;;5061937;28;20028;-68
2022/03/27 14:45:34;;;;;;;17.25;4.43;;;;;;;;;;5064360;28;20035;-69